createdAt,value
2023-05-14T00:01:52.551Z,6.83
2023-05-14T00:04:20.794Z,6.70
2023-05-14T00:06:49.073Z,6.43
2023-05-14T00:09:17.175Z,8.15
2023-05-14T00:11:45.157Z,7.13
2023-05-14T00:14:13.574Z,7.03
2023-05-14T00:16:42.735Z,7.00
2023-05-14T00:19:10.547Z,6.90
2023-05-14T00:21:38.241Z,6.85
2023-05-14T00:24:06.848Z,8.57
2023-05-14T00:26:34.732Z,6.93
2023-05-14T00:29:02.603Z,7.72
2023-05-14T00:31:30.929Z,8.25
2023-05-14T00:34:00.167Z,8.68
2023-05-14T00:36:28.354Z,7.97
2023-05-14T00:38:56.519Z,8.47
2023-05-14T00:41:24.975Z,6.80
2023-05-14T00:43:52.921Z,6.80
2023-05-14T00:46:21.694Z,7.10
2023-05-14T00:48:49.983Z,7.28
2023-05-14T00:51:19.995Z,5.93
2023-05-14T00:53:48.785Z,7.25
2023-05-14T00:56:17.878Z,7.72
2023-05-14T00:58:46.104Z,6.70
2023-05-14T01:01:15.347Z,7.90
2023-05-14T01:03:44.032Z,7.03
2023-05-14T01:06:17.915Z,6.25
2023-05-14T01:08:54.757Z,6.38
2023-05-14T01:11:30.866Z,6.88
2023-05-14T01:14:04.998Z,7.10
2023-05-14T01:16:35.509Z,7.63
2023-05-14T01:19:06.174Z,7.35
2023-05-14T01:21:44.858Z,7.25
2023-05-14T01:24:12.591Z,6.10
2023-05-14T01:26:41.082Z,6.22
2023-05-14T01:29:15.220Z,5.70
2023-05-14T01:31:45.519Z,6.78
2023-05-14T01:34:15.296Z,6.85
2023-05-14T01:36:44.987Z,7.18
2023-05-14T01:39:14.764Z,7.45
2023-05-14T01:41:43.816Z,5.47
2023-05-14T01:44:12.394Z,6.72
2023-05-14T01:46:40.289Z,6.55
2023-05-14T01:49:08.434Z,7.05
2023-05-14T01:51:36.516Z,8.48
2023-05-14T01:54:06.054Z,6.83
2023-05-14T01:56:34.651Z,6.32
2023-05-14T01:59:02.729Z,5.53
2023-05-14T02:01:30.715Z,6.97
2023-05-14T02:03:58.447Z,6.32
2023-05-14T02:06:26.547Z,6.57
2023-05-14T02:08:54.418Z,7.53
2023-05-14T02:11:23.641Z,5.85
2023-05-14T02:13:51.723Z,6.93
2023-05-14T02:16:20.168Z,7.32
2023-05-14T02:18:47.876Z,8.03
2023-05-14T02:21:15.718Z,6.90
2023-05-14T02:23:44.400Z,6.45
2023-05-14T02:26:12.459Z,6.47
2023-05-14T02:28:41.915Z,6.45
2023-05-14T02:31:09.819Z,7.27
2023-05-14T02:33:37.483Z,7.53
2023-05-14T02:36:05.745Z,6.63
2023-05-14T02:38:33.773Z,8.35
2023-05-14T02:41:02.355Z,6.85
2023-05-14T02:43:30.271Z,5.77
2023-05-14T02:45:59.887Z,5.70
2023-05-14T02:48:27.719Z,6.25
2023-05-14T02:50:55.529Z,6.47
2023-05-14T02:53:23.684Z,5.60
2023-05-14T02:55:51.536Z,8.30
2023-05-14T02:58:19.439Z,6.22
2023-05-14T03:00:55.393Z,8.07
2023-05-14T03:03:25.140Z,7.05
2023-05-14T03:05:53.590Z,6.25
2023-05-14T03:08:21.597Z,7.00
2023-05-14T03:10:49.444Z,7.80
2023-05-14T03:13:20.125Z,8.02
2023-05-14T03:15:48.674Z,7.20
2023-05-14T03:18:16.318Z,9.07
2023-05-14T03:20:45.485Z,7.27
2023-05-14T03:23:14.871Z,7.07
2023-05-14T03:25:43.488Z,6.95
2023-05-14T03:28:11.454Z,6.63
2023-05-14T03:30:39.127Z,6.35
2023-05-14T03:33:07.411Z,6.30
2023-05-14T03:35:35.287Z,6.15
2023-05-14T03:38:04.594Z,7.70
2023-05-14T03:40:32.683Z,6.82
2023-05-14T03:43:00.822Z,7.43
2023-05-14T03:45:30.495Z,13.60
2023-05-14T03:47:58.428Z,6.22
2023-05-14T03:50:26.576Z,7.65
2023-05-14T03:52:55.151Z,6.32
2023-05-14T03:55:24.630Z,6.10
2023-05-14T03:57:53.145Z,8.63
2023-05-14T04:00:21.519Z,8.48
2023-05-14T04:02:49.765Z,7.22
2023-05-14T04:05:18.103Z,6.63
2023-05-14T04:07:46.247Z,7.20
2023-05-14T04:10:14.231Z,6.50
2023-05-14T04:12:44.190Z,13.32
2023-05-14T04:15:12.831Z,35.17
2023-05-14T04:17:40.565Z,21.42
2023-05-14T04:20:09.753Z,17.85
2023-05-14T04:22:37.901Z,16.90
2023-05-14T04:25:06.765Z,14.93
2023-05-14T04:27:34.943Z,29.60
2023-05-14T04:30:04.415Z,30.98
2023-05-14T04:32:32.187Z,14.40
2023-05-14T04:35:00.225Z,9.43
2023-05-14T04:37:28.461Z,8.35
2023-05-14T04:39:56.564Z,8.25
2023-05-14T04:42:24.569Z,7.53
2023-05-14T04:44:54.092Z,10.68
2023-05-14T04:47:23.980Z,7.03
2023-05-14T04:49:51.742Z,6.78
2023-05-14T04:52:19.745Z,5.82
2023-05-14T04:54:47.891Z,6.30
2023-05-14T04:57:15.910Z,6.15
2023-05-14T04:59:43.807Z,5.80
2023-05-14T05:02:11.485Z,7.15
2023-05-14T05:04:40.854Z,5.93
2023-05-14T05:07:09.121Z,6.22
2023-05-14T05:09:36.696Z,5.93
2023-05-14T05:12:04.560Z,5.43
2023-05-14T05:14:32.219Z,6.68
2023-05-14T05:17:00.244Z,6.32
2023-05-14T05:19:42.504Z,7.75
2023-05-14T05:22:12.798Z,5.88
2023-05-14T05:24:40.480Z,6.17
2023-05-14T05:27:08.443Z,6.30
2023-05-14T05:29:36.936Z,7.95
2023-05-14T05:32:04.946Z,6.88
2023-05-14T05:34:32.704Z,8.90
2023-05-14T05:37:00.792Z,8.53
2023-05-14T05:39:34.940Z,7.40
2023-05-14T05:42:03.545Z,8.82
2023-05-14T05:44:31.423Z,7.93
2023-05-14T05:46:59.323Z,8.85
2023-05-14T05:49:27.697Z,7.03
2023-05-14T05:51:55.599Z,7.38
2023-05-14T05:54:24.479Z,9.40
2023-05-14T05:56:53.962Z,7.97
2023-05-14T05:59:21.842Z,6.05
2023-05-14T06:01:49.849Z,6.97
2023-05-14T06:04:17.751Z,8.35
2023-05-14T06:06:45.432Z,8.55
2023-05-14T06:09:13.549Z,6.70
2023-05-14T06:11:41.710Z,8.18
2023-05-14T06:14:10.932Z,7.03
2023-05-14T06:16:38.653Z,5.85
2023-05-14T06:19:06.430Z,8.18
2023-05-14T06:21:34.479Z,8.55
2023-05-14T06:24:02.281Z,7.47
2023-05-14T06:26:30.268Z,7.83
2023-05-14T06:28:58.259Z,8.52
2023-05-14T06:31:27.517Z,6.68
2023-05-14T06:33:55.521Z,7.47
2023-05-14T06:36:24.226Z,7.07
2023-05-14T06:38:52.093Z,7.50
2023-05-14T06:41:19.949Z,7.75
2023-05-14T06:43:47.834Z,8.32
2023-05-14T06:46:16.270Z,8.02
2023-05-14T06:48:45.815Z,7.57
2023-05-14T06:51:14.255Z,7.73
2023-05-14T06:53:41.884Z,9.05
2023-05-14T06:56:09.756Z,6.88
2023-05-14T06:58:37.811Z,7.03
2023-05-14T07:01:06.630Z,7.88
2023-05-14T07:03:34.328Z,9.03
2023-05-14T07:06:03.850Z,7.80
2023-05-14T07:08:31.875Z,7.68
2023-05-14T07:10:59.931Z,8.27
2023-05-14T07:13:28.826Z,7.75
2023-05-14T07:15:57.204Z,8.43
2023-05-14T07:18:25.154Z,7.57
2023-05-14T07:20:52.927Z,6.63
2023-05-14T07:23:22.170Z,7.90
2023-05-14T07:25:50.098Z,7.80
2023-05-14T07:28:17.990Z,8.90
2023-05-14T07:30:46.586Z,6.30
2023-05-14T07:33:14.544Z,6.78
2023-05-14T07:35:42.796Z,6.28
2023-05-14T07:38:10.794Z,6.95
2023-05-14T07:40:40.333Z,6.97
2023-05-14T07:43:08.716Z,6.00
2023-05-14T07:45:37.650Z,7.10
2023-05-14T07:48:06.009Z,6.72
2023-05-14T07:50:37.625Z,6.40
2023-05-14T07:53:05.507Z,7.47
2023-05-14T07:55:33.181Z,7.00
2023-05-14T07:58:02.407Z,6.13
2023-05-14T08:00:30.488Z,7.78
2023-05-14T08:02:59.282Z,8.40
2023-05-14T08:05:27.563Z,6.50
2023-05-14T08:07:55.410Z,5.95
2023-05-14T08:10:23.956Z,7.97
2023-05-14T08:12:52.128Z,6.25
2023-05-14T08:15:21.520Z,7.05
2023-05-14T08:17:49.424Z,6.37
2023-05-14T08:20:17.762Z,7.47
2023-05-14T08:22:45.512Z,6.30
2023-05-14T08:25:13.385Z,6.80
2023-05-14T08:27:41.565Z,6.10
2023-05-14T08:30:09.941Z,6.80
2023-05-14T08:32:39.430Z,9.85
2023-05-14T08:35:08.406Z,8.25
2023-05-14T08:37:36.330Z,6.80
2023-05-14T08:40:04.932Z,8.07
2023-05-14T08:42:33.594Z,6.97
2023-05-14T08:45:03.828Z,7.25
2023-05-14T08:47:32.129Z,8.43
2023-05-14T08:50:05.249Z,7.80
2023-05-14T08:52:33.575Z,6.85
2023-05-14T08:55:04.226Z,7.10
2023-05-14T08:57:34.392Z,8.35
2023-05-14T09:00:07.343Z,7.50
2023-05-14T09:02:36.121Z,7.75
2023-05-14T09:05:07.181Z,7.20
2023-05-14T09:07:35.303Z,6.93
2023-05-14T09:10:04.330Z,6.75
2023-05-14T09:12:32.482Z,7.55
2023-05-14T09:15:00.321Z,8.90
2023-05-14T09:17:28.711Z,6.93
2023-05-14T09:19:57.384Z,6.43
2023-05-14T09:22:26.411Z,7.35
2023-05-14T09:25:05.064Z,7.45
2023-05-14T09:27:34.257Z,6.57
2023-05-14T09:30:10.024Z,5.65
2023-05-14T09:32:39.844Z,6.63
2023-05-14T09:35:12.836Z,6.20
2023-05-14T09:37:44.605Z,7.13
2023-05-14T09:40:13.525Z,7.22
2023-05-14T09:42:41.603Z,6.95
2023-05-14T09:45:10.883Z,7.40
2023-05-14T09:47:39.479Z,6.13
2023-05-14T09:50:08.748Z,6.38
2023-05-14T09:52:37.354Z,5.80
2023-05-14T09:55:08.229Z,7.28
2023-05-14T09:57:37.023Z,6.67
2023-05-14T10:00:05.780Z,5.72
2023-05-14T10:02:41.573Z,5.63
2023-05-14T10:05:13.536Z,6.63
2023-05-14T10:07:47.969Z,5.25
2023-05-14T10:10:21.302Z,5.70
2023-05-14T10:12:53.588Z,6.63
2023-05-14T10:15:25.074Z,8.88
2023-05-14T10:17:57.568Z,6.90
2023-05-14T10:20:26.742Z,8.88
2023-05-14T10:22:55.087Z,7.20
2023-05-14T10:25:24.799Z,6.10
2023-05-14T10:27:53.028Z,7.18
2023-05-14T10:30:24.448Z,6.93
2023-05-14T10:33:07.699Z,6.78
2023-05-14T10:35:58.012Z,6.23
2023-05-14T10:38:28.797Z,6.53
2023-05-14T10:41:15.135Z,4.95
2023-05-14T10:43:43.632Z,5.88
2023-05-14T10:46:14.347Z,6.32
2023-05-14T10:48:44.286Z,6.20
2023-05-14T10:51:12.841Z,8.02
2023-05-14T10:53:42.939Z,6.40
2023-05-14T10:56:13.733Z,7.32
2023-05-14T10:58:44.220Z,6.65
2023-05-14T11:01:13.137Z,4.97
2023-05-14T11:03:42.917Z,6.10
2023-05-14T11:06:11.962Z,5.18
2023-05-14T11:08:40.658Z,7.28
2023-05-14T11:11:09.665Z,5.05
2023-05-14T11:13:38.850Z,5.47
2023-05-14T11:16:21.887Z,6.05
2023-05-14T11:18:54.877Z,9.10
2023-05-14T11:21:23.661Z,8.10
2023-05-14T11:23:51.458Z,7.93
2023-05-14T11:26:21.673Z,5.83
2023-05-14T11:28:51.585Z,20.95
2023-05-14T11:31:19.710Z,12.80
2023-05-14T11:33:48.952Z,9.10
2023-05-14T11:36:16.879Z,9.25
2023-05-14T11:38:48.886Z,6.37
2023-05-14T11:41:16.870Z,4.88
2023-05-14T11:43:44.846Z,5.10
2023-05-14T11:46:19.904Z,4.82
2023-05-14T11:48:48.142Z,6.43
2023-05-14T11:51:16.087Z,6.13
2023-05-14T11:53:44.192Z,5.03
2023-05-14T11:56:12.452Z,5.93
2023-05-14T11:58:40.414Z,6.70
2023-05-14T12:01:08.140Z,5.80
2023-05-14T12:03:37.933Z,7.40
2023-05-14T12:06:08.660Z,5.38
2023-05-14T12:08:39.699Z,5.80
2023-05-14T12:11:07.992Z,6.75
2023-05-14T12:13:37.738Z,6.32
2023-05-14T12:16:06.217Z,5.47
2023-05-14T12:18:38.061Z,5.35
2023-05-14T12:21:08.552Z,4.93
2023-05-14T12:23:37.117Z,4.85
2023-05-14T12:26:06.665Z,6.40
2023-05-14T12:28:38.523Z,5.23
2023-05-14T12:31:07.293Z,5.07
2023-05-14T12:33:35.415Z,5.47
2023-05-14T12:36:20.598Z,4.13
2023-05-14T12:38:50.450Z,4.70
2023-05-14T12:41:18.721Z,5.03
2023-05-14T12:43:49.244Z,4.25
2023-05-14T12:46:17.763Z,3.85
2023-05-14T12:48:45.406Z,4.32
2023-05-14T12:51:14.564Z,4.70
2023-05-14T12:53:42.686Z,6.13
2023-05-14T12:56:10.988Z,4.90
2023-05-14T12:58:38.729Z,4.40
2023-05-14T13:01:07.504Z,4.50
2023-05-14T13:03:35.744Z,4.88
2023-05-14T13:06:03.725Z,4.43
2023-05-14T13:08:33.107Z,5.40
2023-05-14T13:11:00.781Z,5.93
2023-05-14T13:13:28.706Z,4.10
2023-05-14T13:15:56.797Z,4.30
2023-05-14T13:18:26.434Z,5.30
2023-05-14T13:20:55.968Z,3.78
2023-05-14T13:23:24.084Z,4.68
2023-05-14T13:25:53.338Z,5.13
2023-05-14T13:28:21.255Z,5.20
2023-05-14T13:31:06.265Z,4.77
2023-05-14T13:33:35.852Z,6.20
2023-05-14T13:36:03.803Z,6.20
2023-05-14T13:38:31.725Z,5.22
2023-05-14T13:41:03.265Z,5.10
2023-05-14T13:43:31.745Z,5.17
2023-05-14T13:45:59.732Z,5.60
2023-05-14T13:48:28.600Z,4.65
2023-05-14T13:50:56.818Z,5.05
2023-05-14T13:53:25.610Z,5.65
2023-05-14T13:55:56.569Z,4.67
2023-05-14T13:58:26.120Z,4.07
2023-05-14T14:00:54.324Z,5.38
2023-05-14T14:03:22.731Z,4.53
2023-05-14T14:05:52.173Z,5.03
2023-05-14T14:08:24.078Z,5.13
2023-05-14T14:10:52.296Z,4.55
2023-05-14T14:13:22.904Z,4.57
2023-05-14T14:15:52.358Z,4.78
2023-05-14T14:18:20.548Z,5.88
2023-05-14T14:20:49.114Z,4.10
2023-05-14T14:23:17.118Z,5.38
2023-05-14T14:25:44.992Z,4.60
2023-05-14T14:28:12.938Z,4.90
2023-05-14T14:30:41.308Z,4.88
2023-05-14T14:33:11.203Z,5.83
2023-05-14T14:35:39.670Z,6.35
2023-05-14T14:38:07.794Z,4.35
2023-05-14T14:40:36.700Z,5.90
2023-05-14T14:43:04.452Z,5.55
2023-05-14T14:45:32.408Z,4.87
2023-05-14T14:48:31.592Z,5.10
2023-05-14T14:51:00.040Z,6.45
2023-05-14T14:53:28.347Z,5.90
2023-05-14T14:55:57.923Z,5.22
2023-05-14T14:58:26.101Z,5.67
2023-05-14T15:00:55.865Z,5.70
2023-05-14T15:03:24.002Z,5.40
2023-05-14T15:05:54.418Z,9.52
2023-05-14T15:08:26.495Z,6.68
2023-05-14T15:10:54.805Z,5.50
2023-05-14T15:13:22.856Z,5.40
2023-05-14T15:15:52.097Z,7.10
2023-05-14T15:18:20.048Z,5.65
2023-05-14T15:20:47.887Z,4.05
2023-05-14T15:23:16.975Z,4.63
2023-05-14T15:25:44.716Z,4.85
2023-05-14T15:28:12.573Z,4.75
2023-05-14T15:30:40.827Z,5.25
2023-05-14T15:33:09.385Z,5.53
2023-05-14T15:35:37.781Z,4.53
2023-05-14T15:38:05.758Z,5.18
2023-05-14T15:40:35.806Z,4.43
2023-05-14T15:43:03.627Z,4.82
2023-05-14T15:45:31.642Z,5.78
2023-05-14T15:47:59.526Z,5.83
2023-05-14T15:50:27.704Z,5.32
2023-05-14T15:52:55.693Z,7.47
2023-05-14T15:55:23.429Z,6.10
2023-05-14T15:57:52.695Z,6.55
2023-05-14T16:00:21.192Z,8.87
2023-05-14T16:02:49.622Z,5.13
2023-05-14T16:05:17.732Z,5.15
2023-05-14T16:07:45.434Z,4.93
2023-05-14T16:10:13.385Z,4.93
2023-05-14T16:12:41.325Z,5.20
2023-05-14T16:15:11.669Z,5.97
2023-05-14T16:17:39.823Z,4.50
2023-05-14T16:20:09.188Z,4.10
2023-05-14T16:22:37.097Z,5.15
2023-05-14T16:25:06.026Z,4.73
2023-05-14T16:27:34.542Z,5.28
2023-05-14T16:30:02.638Z,4.75
2023-05-14T16:32:31.654Z,5.45
2023-05-14T16:35:01.831Z,5.05
2023-05-14T16:37:29.989Z,5.10
2023-05-14T16:39:57.726Z,4.57
2023-05-14T16:42:26.263Z,4.63
2023-05-14T16:44:54.215Z,4.82
2023-05-14T16:47:22.703Z,4.40
2023-05-14T16:49:52.135Z,5.13
2023-05-14T16:52:20.069Z,7.35
2023-05-14T16:54:47.747Z,4.72
2023-05-14T16:57:15.784Z,4.65
2023-05-14T16:59:43.381Z,4.80
2023-05-14T17:02:11.014Z,5.93
2023-05-14T17:04:42.296Z,6.05
2023-05-14T17:07:11.567Z,5.18
2023-05-14T17:09:39.214Z,7.18
2023-05-14T17:12:08.077Z,5.95
2023-05-14T17:14:36.155Z,5.33
2023-05-14T17:17:03.881Z,6.15
2023-05-14T17:19:32.028Z,5.80
2023-05-14T17:22:00.671Z,6.47
2023-05-14T17:24:30.331Z,6.30
2023-05-14T17:27:01.150Z,4.00
2023-05-14T17:29:28.770Z,4.28
2023-05-14T17:31:57.846Z,6.10
2023-05-14T17:34:26.175Z,4.22
2023-05-14T17:36:55.502Z,4.78
2023-05-14T17:39:23.695Z,6.17
2023-05-14T17:41:53.210Z,7.15
2023-05-14T17:44:23.852Z,8.20
2023-05-14T17:46:51.902Z,10.05
2023-05-14T17:49:20.049Z,14.82
2023-05-14T17:51:50.951Z,11.83
2023-05-14T17:54:24.598Z,8.38
2023-05-14T17:56:54.198Z,6.65
2023-05-14T17:59:25.366Z,6.45
2023-05-14T18:01:53.636Z,5.57
2023-05-14T18:04:23.958Z,4.00
2023-05-14T18:06:51.941Z,5.50
2023-05-14T18:09:20.005Z,7.45
2023-05-14T18:11:59.322Z,4.97
2023-05-14T18:14:27.006Z,3.95
2023-05-14T18:16:55.944Z,4.07
2023-05-14T18:19:26.558Z,4.63
2023-05-14T18:21:55.658Z,6.47
2023-05-14T18:24:23.981Z,5.80
2023-05-14T18:26:51.839Z,4.55
2023-05-14T18:29:21.074Z,4.63
2023-05-14T18:31:49.132Z,5.15
2023-05-14T18:34:17.100Z,3.75
2023-05-14T18:36:45.560Z,3.65
2023-05-14T18:39:13.565Z,3.65
2023-05-14T18:41:41.488Z,4.07
2023-05-14T18:44:09.830Z,4.55
2023-05-14T18:46:40.017Z,2.80
2023-05-14T18:49:08.628Z,3.42
2023-05-14T18:51:37.082Z,3.92
2023-05-14T18:54:05.140Z,4.40
2023-05-14T18:56:33.205Z,5.55
2023-05-14T18:59:01.724Z,4.05
2023-05-14T19:01:29.920Z,4.60
2023-05-14T19:04:00.540Z,5.30
2023-05-14T19:06:30.275Z,3.90
2023-05-14T19:08:59.318Z,3.25
2023-05-14T19:11:27.014Z,5.85
2023-05-14T19:13:55.348Z,4.68
2023-05-14T19:16:24.403Z,5.40
2023-05-14T19:18:52.622Z,4.77
2023-05-14T19:21:22.353Z,4.30
2023-05-14T19:23:50.482Z,3.17
2023-05-14T19:26:18.455Z,2.70
2023-05-14T19:28:53.004Z,4.80
2023-05-14T19:31:20.634Z,3.37
2023-05-14T19:33:48.706Z,4.68
2023-05-14T19:36:16.764Z,3.90
2023-05-14T19:38:47.269Z,3.47
2023-05-14T19:41:15.625Z,3.13
2023-05-14T19:43:43.657Z,3.53
2023-05-14T19:46:11.895Z,3.97
2023-05-14T19:48:39.761Z,3.80
2023-05-14T19:51:07.769Z,4.75
2023-05-14T19:53:35.757Z,2.95
2023-05-14T19:56:05.246Z,4.80
2023-05-14T19:58:32.854Z,3.47
2023-05-14T20:01:01.522Z,5.28
2023-05-14T20:03:30.060Z,5.43
2023-05-14T20:05:58.032Z,4.47
2023-05-14T20:08:26.469Z,5.57
2023-05-14T20:10:54.639Z,3.42
2023-05-14T20:13:25.243Z,3.53
2023-05-14T20:15:55.355Z,3.80
2023-05-14T20:18:23.320Z,4.18
2023-05-14T20:20:51.902Z,5.83
2023-05-14T20:23:20.958Z,5.57
2023-05-14T20:25:49.263Z,4.95
2023-05-14T20:28:17.285Z,6.57
2023-05-14T20:30:48.229Z,6.18
2023-05-14T20:33:16.908Z,6.33
2023-05-14T20:35:45.736Z,6.65
2023-05-14T20:38:13.961Z,5.53
2023-05-14T20:40:42.144Z,5.15
2023-05-14T20:43:10.195Z,3.90
2023-05-14T20:45:38.202Z,7.10
2023-05-14T20:48:12.128Z,4.97
2023-05-14T20:50:40.358Z,6.85
2023-05-14T20:53:08.337Z,7.75
2023-05-14T20:55:36.360Z,9.00
2023-05-14T20:58:04.486Z,5.27
2023-05-14T21:00:32.495Z,4.53
2023-05-14T21:03:00.671Z,6.22
2023-05-14T21:05:30.707Z,7.63
2023-05-14T21:08:00.753Z,6.35
2023-05-14T21:10:28.960Z,5.90
2023-05-14T21:12:56.959Z,5.53
2023-05-14T21:15:25.253Z,5.50
2023-05-14T21:17:53.554Z,4.40
2023-05-14T21:20:22.038Z,4.28
2023-05-14T21:22:51.281Z,3.93
2023-05-14T21:25:19.320Z,4.75
2023-05-14T21:27:47.465Z,3.63
2023-05-14T21:30:16.032Z,4.63
2023-05-14T21:32:43.937Z,4.00
2023-05-14T21:35:12.105Z,5.20
2023-05-14T21:37:40.629Z,4.07
2023-05-14T21:40:12.603Z,4.10
2023-05-14T21:42:40.783Z,4.03
2023-05-14T21:45:09.201Z,4.28
2023-05-14T21:47:37.622Z,3.43
2023-05-14T21:50:07.194Z,5.95
2023-05-14T21:52:35.216Z,4.18
2023-05-14T21:55:02.869Z,4.72
2023-05-14T21:57:34.683Z,4.32
2023-05-14T22:00:05.120Z,3.53
2023-05-14T22:02:33.473Z,4.57
2023-05-14T22:05:01.717Z,4.63
2023-05-14T22:07:30.077Z,4.07
2023-05-14T22:09:58.255Z,4.28
2023-05-14T22:12:26.824Z,5.40
2023-05-14T22:14:56.550Z,5.57
2023-05-14T22:17:24.544Z,7.38
2023-05-14T22:19:52.260Z,7.32
2023-05-14T22:22:20.217Z,5.43
2023-05-14T22:24:48.174Z,4.90
2023-05-14T22:27:16.170Z,5.18
2023-05-14T22:29:44.272Z,6.45
2023-05-14T22:32:13.749Z,4.75
2023-05-14T22:34:42.475Z,4.00
2023-05-14T22:37:11.151Z,4.10
2023-05-14T22:39:38.866Z,4.68
2023-05-14T22:42:07.348Z,4.20
2023-05-14T22:44:35.574Z,4.10
2023-05-14T22:47:05.223Z,4.63
2023-05-14T22:49:34.580Z,4.23
2023-05-14T22:52:02.586Z,3.70
2023-05-14T22:54:30.581Z,4.57
2023-05-14T22:56:58.541Z,3.90
2023-05-14T22:59:26.966Z,3.90
2023-05-14T23:01:54.809Z,4.17
2023-05-14T23:04:22.865Z,4.22
2023-05-14T23:06:52.261Z,3.92
2023-05-14T23:09:20.855Z,5.82
2023-05-14T23:11:48.878Z,4.35
2023-05-14T23:14:18.385Z,4.27
2023-05-14T23:16:46.867Z,4.68
2023-05-14T23:19:15.136Z,4.50
2023-05-14T23:21:42.876Z,5.38
2023-05-14T23:24:11.985Z,3.90
2023-05-14T23:26:39.935Z,3.37
2023-05-14T23:29:08.022Z,4.63
2023-05-14T23:31:37.187Z,6.43
2023-05-14T23:34:05.257Z,3.45
2023-05-14T23:36:34.236Z,3.22
2023-05-14T23:39:02.707Z,5.53
2023-05-14T23:41:31.929Z,3.95
2023-05-14T23:44:00.212Z,5.57
2023-05-14T23:46:28.305Z,3.70
2023-05-14T23:48:57.103Z,4.13
2023-05-14T23:51:25.521Z,4.20
2023-05-14T23:53:58.498Z,3.75
2023-05-14T23:56:27.441Z,3.75
2023-05-14T23:58:57.064Z,5.15
